sensor_id;sensor_type;location;lat;lon;timestamp;P1;durP1;ratioP1;P2;durP2;ratioP2
64597;SDS011;51004;54.692;9.332;2023-04-10T00:00:20;25.80;;;17.35;;
64597;SDS011;51004;54.692;9.332;2023-04-10T00:02:46;26.35;;;16.65;;
64597;SDS011;51004;54.692;9.332;2023-04-10T00:05:13;24.65;;;17.25;;
64597;SDS011;51004;54.692;9.332;2023-04-10T00:07:40;28.75;;;17.05;;
64597;SDS011;51004;54.692;9.332;2023-04-10T00:10:06;24.25;;;17.15;;
64597;SDS011;51004;54.692;9.332;2023-04-10T00:12:34;26.52;;;17.77;;
64597;SDS011;51004;54.692;9.332;2023-04-10T00:15:01;23.98;;;16.92;;
64597;SDS011;51004;54.692;9.332;2023-04-10T00:17:27;29.42;;;18.35;;
64597;SDS011;51004;54.692;9.332;2023-04-10T00:19:52;26.35;;;17.08;;
64597;SDS011;51004;54.692;9.332;2023-04-10T00:22:18;30.35;;;19.23;;
64597;SDS011;51004;54.692;9.332;2023-04-10T00:24:44;28.00;;;17.42;;
64597;SDS011;51004;54.692;9.332;2023-04-10T00:27:10;30.02;;;18.73;;
64597;SDS011;51004;54.692;9.332;2023-04-10T00:29:36;26.40;;;17.80;;
64597;SDS011;51004;54.692;9.332;2023-04-10T00:32:02;27.52;;;18.77;;
64597;SDS011;51004;54.692;9.332;2023-04-10T00:34:28;28.02;;;17.33;;
64597;SDS011;51004;54.692;9.332;2023-04-10T00:36:55;27.45;;;18.48;;
64597;SDS011;51004;54.692;9.332;2023-04-10T00:39:21;26.45;;;17.52;;
64597;SDS011;51004;54.692;9.332;2023-04-10T00:41:47;23.63;;;18.13;;
64597;SDS011;51004;54.692;9.332;2023-04-10T00:44:13;26.27;;;18.42;;
64597;SDS011;51004;54.692;9.332;2023-04-10T00:46:39;28.73;;;17.63;;
64597;SDS011;51004;54.692;9.332;2023-04-10T00:49:05;30.25;;;18.38;;
64597;SDS011;51004;54.692;9.332;2023-04-10T00:51:31;31.30;;;19.02;;
64597;SDS011;51004;54.692;9.332;2023-04-10T00:53:57;25.95;;;19.08;;
64597;SDS011;51004;54.692;9.332;2023-04-10T00:56:25;26.13;;;17.75;;
64597;SDS011;51004;54.692;9.332;2023-04-10T00:58:51;27.48;;;18.45;;
64597;SDS011;51004;54.692;9.332;2023-04-10T01:01:17;28.50;;;18.40;;
64597;SDS011;51004;54.692;9.332;2023-04-10T01:03:43;28.70;;;19.20;;
64597;SDS011;51004;54.692;9.332;2023-04-10T01:16:45;29.27;;;19.38;;
64597;SDS011;51004;54.692;9.332;2023-04-10T01:22:00;29.77;;;18.85;;
64597;SDS011;51004;54.692;9.332;2023-04-10T01:29:57;28.85;;;19.65;;
64597;SDS011;51004;54.692;9.332;2023-04-10T01:32:24;29.13;;;19.42;;
64597;SDS011;51004;54.692;9.332;2023-04-10T01:34:53;28.50;;;19.55;;
64597;SDS011;51004;54.692;9.332;2023-04-10T01:37:21;30.40;;;19.25;;
64597;SDS011;51004;54.692;9.332;2023-04-10T01:39:49;26.65;;;19.83;;
64597;SDS011;51004;54.692;9.332;2023-04-10T01:42:15;28.08;;;19.75;;
64597;SDS011;51004;54.692;9.332;2023-04-10T01:44:43;27.38;;;20.35;;
64597;SDS011;51004;54.692;9.332;2023-04-10T01:47:09;27.15;;;20.40;;
64597;SDS011;51004;54.692;9.332;2023-04-10T01:49:35;29.73;;;20.90;;
64597;SDS011;51004;54.692;9.332;2023-04-10T01:52:06;29.30;;;20.45;;
64597;SDS011;51004;54.692;9.332;2023-04-10T01:54:32;30.67;;;22.02;;
64597;SDS011;51004;54.692;9.332;2023-04-10T01:56:59;30.30;;;22.23;;
64597;SDS011;51004;54.692;9.332;2023-04-10T01:59:27;31.83;;;20.75;;
64597;SDS011;51004;54.692;9.332;2023-04-10T02:01:55;32.13;;;20.85;;
64597;SDS011;51004;54.692;9.332;2023-04-10T02:04:21;31.35;;;20.65;;
64597;SDS011;51004;54.692;9.332;2023-04-10T02:06:49;32.90;;;21.55;;
64597;SDS011;51004;54.692;9.332;2023-04-10T02:09:18;34.05;;;21.52;;
64597;SDS011;51004;54.692;9.332;2023-04-10T02:11:48;29.10;;;20.90;;
64597;SDS011;51004;54.692;9.332;2023-04-10T02:14:17;33.00;;;22.08;;
64597;SDS011;51004;54.692;9.332;2023-04-10T02:16:45;33.00;;;21.67;;
64597;SDS011;51004;54.692;9.332;2023-04-10T02:19:12;30.58;;;21.63;;
64597;SDS011;51004;54.692;9.332;2023-04-10T02:21:38;34.05;;;21.83;;
64597;SDS011;51004;54.692;9.332;2023-04-10T02:24:06;34.90;;;21.95;;
64597;SDS011;51004;54.692;9.332;2023-04-10T02:26:48;33.08;;;21.42;;
64597;SDS011;51004;54.692;9.332;2023-04-10T02:29:14;31.65;;;20.63;;
64597;SDS011;51004;54.692;9.332;2023-04-10T02:31:40;35.60;;;23.25;;
64597;SDS011;51004;54.692;9.332;2023-04-10T02:34:07;32.30;;;22.95;;
64597;SDS011;51004;54.692;9.332;2023-04-10T02:36:36;36.10;;;23.95;;
64597;SDS011;51004;54.692;9.332;2023-04-10T02:39:03;33.45;;;21.45;;
64597;SDS011;51004;54.692;9.332;2023-04-10T02:41:29;34.92;;;22.17;;
64597;SDS011;51004;54.692;9.332;2023-04-10T02:43:55;31.05;;;23.13;;
64597;SDS011;51004;54.692;9.332;2023-04-10T02:46:21;34.20;;;23.42;;
64597;SDS011;51004;54.692;9.332;2023-04-10T02:48:47;35.88;;;22.92;;
64597;SDS011;51004;54.692;9.332;2023-04-10T02:51:13;32.67;;;21.50;;
64597;SDS011;51004;54.692;9.332;2023-04-10T02:53:39;34.55;;;23.25;;
64597;SDS011;51004;54.692;9.332;2023-04-10T02:56:05;32.97;;;22.38;;
64597;SDS011;51004;54.692;9.332;2023-04-10T02:58:33;31.83;;;22.13;;
64597;SDS011;51004;54.692;9.332;2023-04-10T03:01:00;36.05;;;23.00;;
64597;SDS011;51004;54.692;9.332;2023-04-10T03:03:26;31.65;;;23.08;;
64597;SDS011;51004;54.692;9.332;2023-04-10T03:05:52;32.97;;;23.00;;
64597;SDS011;51004;54.692;9.332;2023-04-10T03:08:18;31.27;;;21.45;;
64597;SDS011;51004;54.692;9.332;2023-04-10T03:10:45;34.03;;;22.92;;
64597;SDS011;51004;54.692;9.332;2023-04-10T03:13:13;37.63;;;23.52;;
64597;SDS011;51004;54.692;9.332;2023-04-10T03:15:39;34.60;;;23.65;;
64597;SDS011;51004;54.692;9.332;2023-04-10T03:18:05;33.13;;;22.58;;
64597;SDS011;51004;54.692;9.332;2023-04-10T03:20:31;34.08;;;23.23;;
64597;SDS011;51004;54.692;9.332;2023-04-10T03:22:58;35.83;;;23.20;;
64597;SDS011;51004;54.692;9.332;2023-04-10T03:25:24;31.95;;;21.13;;
64597;SDS011;51004;54.692;9.332;2023-04-10T03:27:51;34.60;;;23.52;;
64597;SDS011;51004;54.692;9.332;2023-04-10T03:30:17;36.45;;;23.08;;
64597;SDS011;51004;54.692;9.332;2023-04-10T03:32:43;32.10;;;22.35;;
64597;SDS011;51004;54.692;9.332;2023-04-10T03:35:09;30.92;;;22.00;;
64597;SDS011;51004;54.692;9.332;2023-04-10T03:37:35;33.05;;;22.70;;
64597;SDS011;51004;54.692;9.332;2023-04-10T03:40:05;33.15;;;23.67;;
64597;SDS011;51004;54.692;9.332;2023-04-10T03:42:32;30.67;;;22.25;;
64597;SDS011;51004;54.692;9.332;2023-04-10T03:44:58;30.75;;;22.30;;
64597;SDS011;51004;54.692;9.332;2023-04-10T03:47:25;31.98;;;22.50;;
64597;SDS011;51004;54.692;9.332;2023-04-10T03:49:51;31.13;;;22.98;;
64597;SDS011;51004;54.692;9.332;2023-04-10T03:52:17;35.30;;;21.88;;
64597;SDS011;51004;54.692;9.332;2023-04-10T03:54:43;36.00;;;22.50;;
64597;SDS011;51004;54.692;9.332;2023-04-10T03:57:09;32.28;;;21.95;;
64597;SDS011;51004;54.692;9.332;2023-04-10T03:59:35;33.58;;;22.90;;
64597;SDS011;51004;54.692;9.332;2023-04-10T04:02:01;34.42;;;23.00;;
64597;SDS011;51004;54.692;9.332;2023-04-10T04:04:27;31.77;;;21.73;;
64597;SDS011;51004;54.692;9.332;2023-04-10T04:06:55;32.13;;;23.17;;
64597;SDS011;51004;54.692;9.332;2023-04-10T04:09:21;31.80;;;21.92;;
64597;SDS011;51004;54.692;9.332;2023-04-10T04:11:47;33.33;;;24.05;;
64597;SDS011;51004;54.692;9.332;2023-04-10T04:14:13;32.28;;;21.20;;
64597;SDS011;51004;54.692;9.332;2023-04-10T04:16:39;32.42;;;22.45;;
64597;SDS011;51004;54.692;9.332;2023-04-10T04:19:05;32.38;;;21.67;;
64597;SDS011;51004;54.692;9.332;2023-04-10T04:21:31;33.83;;;21.30;;
64597;SDS011;51004;54.692;9.332;2023-04-10T04:23:57;30.80;;;21.83;;
64597;SDS011;51004;54.692;9.332;2023-04-10T04:26:23;33.33;;;22.27;;
64597;SDS011;51004;54.692;9.332;2023-04-10T04:28:50;30.15;;;21.83;;
64597;SDS011;51004;54.692;9.332;2023-04-10T04:31:16;31.75;;;22.90;;
64597;SDS011;51004;54.692;9.332;2023-04-10T04:33:42;29.92;;;21.38;;
64597;SDS011;51004;54.692;9.332;2023-04-10T04:36:08;31.55;;;21.83;;
64597;SDS011;51004;54.692;9.332;2023-04-10T04:38:34;31.73;;;22.33;;
64597;SDS011;51004;54.692;9.332;2023-04-10T04:41:00;30.00;;;20.23;;
64597;SDS011;51004;54.692;9.332;2023-04-10T04:43:26;34.88;;;22.30;;
64597;SDS011;51004;54.692;9.332;2023-04-10T04:45:52;33.35;;;22.30;;
64597;SDS011;51004;54.692;9.332;2023-04-10T04:48:18;29.98;;;21.38;;
64597;SDS011;51004;54.692;9.332;2023-04-10T04:50:44;30.33;;;22.50;;
64597;SDS011;51004;54.692;9.332;2023-04-10T04:53:10;31.30;;;20.92;;
64597;SDS011;51004;54.692;9.332;2023-04-10T04:55:36;35.13;;;21.83;;
64597;SDS011;51004;54.692;9.332;2023-04-10T04:58:02;30.33;;;20.90;;
64597;SDS011;51004;54.692;9.332;2023-04-10T05:00:28;29.85;;;21.35;;
64597;SDS011;51004;54.692;9.332;2023-04-10T05:02:54;29.45;;;20.33;;
64597;SDS011;51004;54.692;9.332;2023-04-10T05:05:20;30.08;;;21.02;;
64597;SDS011;51004;54.692;9.332;2023-04-10T05:07:47;29.58;;;21.48;;
64597;SDS011;51004;54.692;9.332;2023-04-10T05:10:13;35.33;;;22.67;;
64597;SDS011;51004;54.692;9.332;2023-04-10T05:12:39;32.80;;;21.60;;
64597;SDS011;51004;54.692;9.332;2023-04-10T05:15:07;30.80;;;20.65;;
64597;SDS011;51004;54.692;9.332;2023-04-10T05:17:33;32.92;;;21.67;;
64597;SDS011;51004;54.692;9.332;2023-04-10T05:19:59;34.88;;;22.25;;
64597;SDS011;51004;54.692;9.332;2023-04-10T05:22:25;33.72;;;22.70;;
64597;SDS011;51004;54.692;9.332;2023-04-10T05:24:52;28.92;;;21.38;;
64597;SDS011;51004;54.692;9.332;2023-04-10T05:27:19;31.13;;;21.77;;
64597;SDS011;51004;54.692;9.332;2023-04-10T05:29:46;30.38;;;20.77;;
64597;SDS011;51004;54.692;9.332;2023-04-10T05:32:12;30.25;;;21.73;;
64597;SDS011;51004;54.692;9.332;2023-04-10T05:34:38;33.53;;;21.33;;
64597;SDS011;51004;54.692;9.332;2023-04-10T05:37:04;29.63;;;22.25;;
64597;SDS011;51004;54.692;9.332;2023-04-10T05:39:30;31.27;;;21.58;;
64597;SDS011;51004;54.692;9.332;2023-04-10T05:41:56;29.48;;;21.35;;
64597;SDS011;51004;54.692;9.332;2023-04-10T05:44:23;31.00;;;21.17;;
64597;SDS011;51004;54.692;9.332;2023-04-10T05:46:48;29.63;;;20.15;;
64597;SDS011;51004;54.692;9.332;2023-04-10T05:49:15;31.10;;;21.40;;
64597;SDS011;51004;54.692;9.332;2023-04-10T05:51:41;32.40;;;21.45;;
64597;SDS011;51004;54.692;9.332;2023-04-10T05:54:07;30.60;;;19.85;;
64597;SDS011;51004;54.692;9.332;2023-04-10T05:56:33;29.35;;;19.92;;
64597;SDS011;51004;54.692;9.332;2023-04-10T05:58:59;30.38;;;22.02;;
64597;SDS011;51004;54.692;9.332;2023-04-10T06:01:25;28.58;;;20.55;;
64597;SDS011;51004;54.692;9.332;2023-04-10T06:03:51;27.33;;;20.08;;
64597;SDS011;51004;54.692;9.332;2023-04-10T06:06:19;27.92;;;21.63;;
64597;SDS011;51004;54.692;9.332;2023-04-10T06:08:45;28.00;;;19.52;;
64597;SDS011;51004;54.692;9.332;2023-04-10T06:11:11;27.80;;;19.95;;
64597;SDS011;51004;54.692;9.332;2023-04-10T06:13:37;29.48;;;20.67;;
64597;SDS011;51004;54.692;9.332;2023-04-10T06:16:03;28.98;;;19.52;;
64597;SDS011;51004;54.692;9.332;2023-04-10T06:18:29;27.40;;;21.08;;
64597;SDS011;51004;54.692;9.332;2023-04-10T06:20:55;29.45;;;20.73;;
64597;SDS011;51004;54.692;9.332;2023-04-10T06:23:24;28.23;;;20.48;;
64597;SDS011;51004;54.692;9.332;2023-04-10T06:25:50;31.10;;;21.05;;
64597;SDS011;51004;54.692;9.332;2023-04-10T06:28:16;25.90;;;18.95;;
64597;SDS011;51004;54.692;9.332;2023-04-10T06:30:42;24.40;;;19.23;;
64597;SDS011;51004;54.692;9.332;2023-04-10T06:33:08;25.58;;;19.38;;
64597;SDS011;51004;54.692;9.332;2023-04-10T06:35:34;29.92;;;20.98;;
64597;SDS011;51004;54.692;9.332;2023-04-10T06:38:01;25.50;;;18.38;;
64597;SDS011;51004;54.692;9.332;2023-04-10T06:40:27;26.52;;;20.25;;
64597;SDS011;51004;54.692;9.332;2023-04-10T06:42:54;28.27;;;21.15;;
64597;SDS011;51004;54.692;9.332;2023-04-10T06:45:20;26.70;;;19.45;;
64597;SDS011;51004;54.692;9.332;2023-04-10T06:47:46;24.60;;;19.85;;
64597;SDS011;51004;54.692;9.332;2023-04-10T06:50:12;26.52;;;19.80;;
64597;SDS011;51004;54.692;9.332;2023-04-10T06:52:38;23.73;;;17.95;;
64597;SDS011;51004;54.692;9.332;2023-04-10T06:55:04;25.17;;;19.13;;
64597;SDS011;51004;54.692;9.332;2023-04-10T06:57:30;26.80;;;18.27;;
64597;SDS011;51004;54.692;9.332;2023-04-10T06:59:56;27.75;;;17.58;;
64597;SDS011;51004;54.692;9.332;2023-04-10T07:02:22;25.70;;;18.55;;
64597;SDS011;51004;54.692;9.332;2023-04-10T07:04:48;24.92;;;17.80;;
64597;SDS011;51004;54.692;9.332;2023-04-10T07:07:14;21.65;;;16.85;;
64597;SDS011;51004;54.692;9.332;2023-04-10T07:09:41;24.10;;;18.10;;
64597;SDS011;51004;54.692;9.332;2023-04-10T07:12:08;25.85;;;18.10;;
64597;SDS011;51004;54.692;9.332;2023-04-10T07:14:34;23.98;;;18.35;;
64597;SDS011;51004;54.692;9.332;2023-04-10T07:17:00;24.92;;;18.73;;
64597;SDS011;51004;54.692;9.332;2023-04-10T07:19:26;22.98;;;18.08;;
64597;SDS011;51004;54.692;9.332;2023-04-10T07:21:52;22.92;;;17.02;;
64597;SDS011;51004;54.692;9.332;2023-04-10T07:24:18;24.10;;;17.77;;
64597;SDS011;51004;54.692;9.332;2023-04-10T07:26:44;23.30;;;18.20;;
64597;SDS011;51004;54.692;9.332;2023-04-10T07:29:11;21.63;;;17.42;;
64597;SDS011;51004;54.692;9.332;2023-04-10T07:31:44;25.88;;;18.08;;
64597;SDS011;51004;54.692;9.332;2023-04-10T07:34:10;22.48;;;18.23;;
64597;SDS011;51004;54.692;9.332;2023-04-10T07:36:36;21.90;;;16.30;;
64597;SDS011;51004;54.692;9.332;2023-04-10T07:39:03;23.40;;;17.80;;
64597;SDS011;51004;54.692;9.332;2023-04-10T07:41:29;18.90;;;16.13;;
64597;SDS011;51004;54.692;9.332;2023-04-10T07:43:55;23.55;;;16.35;;
64597;SDS011;51004;54.692;9.332;2023-04-10T07:46:21;20.25;;;16.15;;
64597;SDS011;51004;54.692;9.332;2023-04-10T07:48:47;23.08;;;17.10;;
64597;SDS011;51004;54.692;9.332;2023-04-10T07:51:13;19.77;;;15.45;;
64597;SDS011;51004;54.692;9.332;2023-04-10T07:53:39;21.58;;;16.75;;
64597;SDS011;51004;54.692;9.332;2023-04-10T07:56:06;19.52;;;16.10;;
64597;SDS011;51004;54.692;9.332;2023-04-10T07:58:32;22.70;;;16.95;;
64597;SDS011;51004;54.692;9.332;2023-04-10T08:00:58;22.17;;;17.20;;
64597;SDS011;51004;54.692;9.332;2023-04-10T08:03:24;18.50;;;15.73;;
64597;SDS011;51004;54.692;9.332;2023-04-10T08:05:50;19.30;;;14.45;;
64597;SDS011;51004;54.692;9.332;2023-04-10T08:08:16;19.27;;;15.63;;
64597;SDS011;51004;54.692;9.332;2023-04-10T08:10:42;20.52;;;16.40;;
64597;SDS011;51004;54.692;9.332;2023-04-10T08:13:08;19.63;;;15.98;;
64597;SDS011;51004;54.692;9.332;2023-04-10T08:15:34;18.88;;;15.65;;
64597;SDS011;51004;54.692;9.332;2023-04-10T08:18:00;19.10;;;14.90;;
64597;SDS011;51004;54.692;9.332;2023-04-10T08:20:26;19.60;;;16.02;;
64597;SDS011;51004;54.692;9.332;2023-04-10T08:22:53;20.00;;;14.35;;
64597;SDS011;51004;54.692;9.332;2023-04-10T08:25:19;18.90;;;15.27;;
64597;SDS011;51004;54.692;9.332;2023-04-10T08:27:45;18.30;;;14.93;;
64597;SDS011;51004;54.692;9.332;2023-04-10T08:30:11;20.83;;;15.07;;
64597;SDS011;51004;54.692;9.332;2023-04-10T08:32:37;16.13;;;13.77;;
64597;SDS011;51004;54.692;9.332;2023-04-10T08:35:03;16.08;;;13.38;;
64597;SDS011;51004;54.692;9.332;2023-04-10T08:37:29;17.88;;;14.43;;
64597;SDS011;51004;54.692;9.332;2023-04-10T08:39:56;19.38;;;15.10;;
64597;SDS011;51004;54.692;9.332;2023-04-10T08:42:22;17.25;;;13.50;;
64597;SDS011;51004;54.692;9.332;2023-04-10T08:44:49;17.48;;;14.20;;
64597;SDS011;51004;54.692;9.332;2023-04-10T08:47:16;17.83;;;14.05;;
64597;SDS011;51004;54.692;9.332;2023-04-10T08:52:19;19.27;;;13.40;;
64597;SDS011;51004;54.692;9.332;2023-04-10T08:54:47;17.48;;;14.18;;
64597;SDS011;51004;54.692;9.332;2023-04-10T08:57:16;17.70;;;13.90;;
64597;SDS011;51004;54.692;9.332;2023-04-10T08:59:44;16.55;;;13.55;;
64597;SDS011;51004;54.692;9.332;2023-04-10T09:02:10;15.68;;;13.77;;
64597;SDS011;51004;54.692;9.332;2023-04-10T09:04:36;14.70;;;12.73;;
64597;SDS011;51004;54.692;9.332;2023-04-10T09:07:03;15.38;;;12.90;;
64597;SDS011;51004;54.692;9.332;2023-04-10T09:09:29;15.27;;;12.50;;
64597;SDS011;51004;54.692;9.332;2023-04-10T09:12:00;14.73;;;11.93;;
64597;SDS011;51004;54.692;9.332;2023-04-10T09:14:31;16.00;;;12.43;;
64597;SDS011;51004;54.692;9.332;2023-04-10T09:17:19;15.38;;;12.82;;
64597;SDS011;51004;54.692;9.332;2023-04-10T09:19:44;15.55;;;12.13;;
64597;SDS011;51004;54.692;9.332;2023-04-10T09:22:11;13.82;;;11.73;;
64597;SDS011;51004;54.692;9.332;2023-04-10T09:24:37;13.70;;;12.20;;
64597;SDS011;51004;54.692;9.332;2023-04-10T09:27:04;14.63;;;12.55;;
64597;SDS011;51004;54.692;9.332;2023-04-10T09:30:04;14.73;;;11.45;;
64597;SDS011;51004;54.692;9.332;2023-04-10T09:32:39;13.27;;;11.52;;
64597;SDS011;51004;54.692;9.332;2023-04-10T09:35:06;14.68;;;11.57;;
64597;SDS011;51004;54.692;9.332;2023-04-10T09:37:33;12.95;;;10.93;;
64597;SDS011;51004;54.692;9.332;2023-04-10T09:39:59;12.93;;;11.00;;
64597;SDS011;51004;54.692;9.332;2023-04-10T09:42:32;15.48;;;12.23;;
64597;SDS011;51004;54.692;9.332;2023-04-10T09:44:59;15.60;;;12.63;;
64597;SDS011;51004;54.692;9.332;2023-04-10T09:47:26;13.07;;;11.13;;
64597;SDS011;51004;54.692;9.332;2023-04-10T09:49:53;12.35;;;9.95;;
64597;SDS011;51004;54.692;9.332;2023-04-10T09:52:29;12.45;;;10.70;;
64597;SDS011;51004;54.692;9.332;2023-04-10T09:54:56;13.50;;;10.57;;
64597;SDS011;51004;54.692;9.332;2023-04-10T09:57:24;12.60;;;10.55;;
64597;SDS011;51004;54.692;9.332;2023-04-10T09:59:54;10.38;;;8.85;;
64597;SDS011;51004;54.692;9.332;2023-04-10T10:02:24;11.25;;;10.00;;
64597;SDS011;51004;54.692;9.332;2023-04-10T10:04:51;12.00;;;10.65;;
64597;SDS011;51004;54.692;9.332;2023-04-10T10:07:17;11.45;;;8.80;;
64597;SDS011;51004;54.692;9.332;2023-04-10T10:09:44;11.00;;;9.80;;
64597;SDS011;51004;54.692;9.332;2023-04-10T10:12:11;11.10;;;9.68;;
64597;SDS011;51004;54.692;9.332;2023-04-10T10:14:39;12.35;;;9.50;;
64597;SDS011;51004;54.692;9.332;2023-04-10T10:17:07;11.48;;;9.57;;
64597;SDS011;51004;54.692;9.332;2023-04-10T10:19:39;10.55;;;9.05;;
64597;SDS011;51004;54.692;9.332;2023-04-10T10:22:06;10.73;;;9.50;;
64597;SDS011;51004;54.692;9.332;2023-04-10T10:24:33;12.55;;;10.13;;
64597;SDS011;51004;54.692;9.332;2023-04-10T10:27:01;11.65;;;9.90;;
64597;SDS011;51004;54.692;9.332;2023-04-10T10:29:28;11.05;;;9.20;;
64597;SDS011;51004;54.692;9.332;2023-04-10T10:31:58;10.02;;;8.52;;
64597;SDS011;51004;54.692;9.332;2023-04-10T10:34:27;10.65;;;8.75;;
64597;SDS011;51004;54.692;9.332;2023-04-10T10:36:53;11.10;;;9.90;;
64597;SDS011;51004;54.692;9.332;2023-04-10T10:41:50;10.55;;;9.07;;
64597;SDS011;51004;54.692;9.332;2023-04-10T10:44:22;9.95;;;8.10;;
64597;SDS011;51004;54.692;9.332;2023-04-10T10:46:57;8.73;;;7.75;;
64597;SDS011;51004;54.692;9.332;2023-04-10T10:52:10;9.45;;;7.95;;
64597;SDS011;51004;54.692;9.332;2023-04-10T10:54:36;9.98;;;8.98;;
64597;SDS011;51004;54.692;9.332;2023-04-10T10:57:03;10.57;;;8.38;;
64597;SDS011;51004;54.692;9.332;2023-04-10T11:02:15;9.25;;;7.88;;
64597;SDS011;51004;54.692;9.332;2023-04-10T11:04:45;8.70;;;7.75;;
64597;SDS011;51004;54.692;9.332;2023-04-10T11:07:12;9.68;;;8.27;;
64597;SDS011;51004;54.692;9.332;2023-04-10T11:09:59;9.07;;;7.88;;
64597;SDS011;51004;54.692;9.332;2023-04-10T11:12:24;8.50;;;7.60;;
64597;SDS011;51004;54.692;9.332;2023-04-10T11:15:09;8.98;;;7.35;;
64597;SDS011;51004;54.692;9.332;2023-04-10T11:17:51;9.55;;;8.13;;
64597;SDS011;51004;54.692;9.332;2023-04-10T11:20:18;8.73;;;7.00;;
64597;SDS011;51004;54.692;9.332;2023-04-10T11:34:07;7.53;;;6.20;;
64597;SDS011;51004;54.692;9.332;2023-04-10T11:36:40;7.85;;;6.15;;
64597;SDS011;51004;54.692;9.332;2023-04-10T11:39:07;7.78;;;5.97;;
64597;SDS011;51004;54.692;9.332;2023-04-10T11:41:37;8.57;;;7.25;;
64597;SDS011;51004;54.692;9.332;2023-04-10T11:44:05;8.98;;;7.15;;
64597;SDS011;51004;54.692;9.332;2023-04-10T11:46:35;7.07;;;6.35;;
64597;SDS011;51004;54.692;9.332;2023-04-10T11:49:03;8.48;;;6.28;;
64597;SDS011;51004;54.692;9.332;2023-04-10T11:51:29;7.40;;;6.68;;
64597;SDS011;51004;54.692;9.332;2023-04-10T11:56:31;8.88;;;7.97;;
64597;SDS011;51004;54.692;9.332;2023-04-10T11:58:57;8.55;;;7.65;;
64597;SDS011;51004;54.692;9.332;2023-04-10T12:01:23;9.32;;;7.70;;
64597;SDS011;51004;54.692;9.332;2023-04-10T12:03:49;8.98;;;6.57;;
64597;SDS011;51004;54.692;9.332;2023-04-10T12:06:15;9.13;;;6.95;;
64597;SDS011;51004;54.692;9.332;2023-04-10T12:08:44;8.80;;;7.32;;
64597;SDS011;51004;54.692;9.332;2023-04-10T12:11:12;8.52;;;7.63;;
64597;SDS011;51004;54.692;9.332;2023-04-10T12:13:38;7.75;;;6.95;;
64597;SDS011;51004;54.692;9.332;2023-04-10T12:16:08;8.68;;;7.75;;
64597;SDS011;51004;54.692;9.332;2023-04-10T12:18:34;9.48;;;8.07;;
64597;SDS011;51004;54.692;9.332;2023-04-10T12:21:00;8.07;;;7.07;;
64597;SDS011;51004;54.692;9.332;2023-04-10T12:23:27;8.02;;;7.07;;
64597;SDS011;51004;54.692;9.332;2023-04-10T12:26:04;8.00;;;7.15;;
64597;SDS011;51004;54.692;9.332;2023-04-10T12:28:31;10.10;;;8.25;;
64597;SDS011;51004;54.692;9.332;2023-04-10T12:30:57;9.98;;;7.80;;
64597;SDS011;51004;54.692;9.332;2023-04-10T12:33:23;9.70;;;8.43;;
64597;SDS011;51004;54.692;9.332;2023-04-10T12:35:50;8.95;;;8.05;;
64597;SDS011;51004;54.692;9.332;2023-04-10T12:38:33;9.70;;;7.65;;
64597;SDS011;51004;54.692;9.332;2023-04-10T12:41:00;8.35;;;7.40;;
64597;SDS011;51004;54.692;9.332;2023-04-10T12:43:30;9.10;;;7.97;;
64597;SDS011;51004;54.692;9.332;2023-04-10T12:45:57;8.95;;;7.80;;
64597;SDS011;51004;54.692;9.332;2023-04-10T12:48:23;9.27;;;7.20;;
64597;SDS011;51004;54.692;9.332;2023-04-10T12:50:49;7.97;;;7.10;;
64597;SDS011;51004;54.692;9.332;2023-04-10T12:53:15;8.52;;;7.65;;
64597;SDS011;51004;54.692;9.332;2023-04-10T12:55:41;8.68;;;7.13;;
64597;SDS011;51004;54.692;9.332;2023-04-10T12:58:22;9.27;;;8.18;;
64597;SDS011;51004;54.692;9.332;2023-04-10T13:00:52;8.13;;;7.32;;
64597;SDS011;51004;54.692;9.332;2023-04-10T13:03:18;8.18;;;7.38;;
64597;SDS011;51004;54.692;9.332;2023-04-10T13:05:44;8.18;;;6.93;;
64597;SDS011;51004;54.692;9.332;2023-04-10T13:08:11;11.40;;;7.85;;
64597;SDS011;51004;54.692;9.332;2023-04-10T13:10:37;8.75;;;7.53;;
64597;SDS011;51004;54.692;9.332;2023-04-10T13:13:04;8.80;;;7.90;;
64597;SDS011;51004;54.692;9.332;2023-04-10T13:15:31;8.43;;;7.43;;
64597;SDS011;51004;54.692;9.332;2023-04-10T13:17:58;9.65;;;7.13;;
64597;SDS011;51004;54.692;9.332;2023-04-10T13:20:24;7.80;;;7.00;;
64597;SDS011;51004;54.692;9.332;2023-04-10T13:22:50;9.23;;;7.05;;
64597;SDS011;51004;54.692;9.332;2023-04-10T13:25:16;8.63;;;7.72;;
64597;SDS011;51004;54.692;9.332;2023-04-10T13:27:42;7.53;;;6.72;;
64597;SDS011;51004;54.692;9.332;2023-04-10T13:30:08;7.80;;;7.00;;
64597;SDS011;51004;54.692;9.332;2023-04-10T13:32:34;8.45;;;6.95;;
64597;SDS011;51004;54.692;9.332;2023-04-10T13:35:00;7.68;;;6.55;;
64597;SDS011;51004;54.692;9.332;2023-04-10T13:37:26;7.93;;;6.20;;
64597;SDS011;51004;54.692;9.332;2023-04-10T13:39:52;8.23;;;6.45;;
64597;SDS011;51004;54.692;9.332;2023-04-10T13:42:19;6.78;;;5.57;;
64597;SDS011;51004;54.692;9.332;2023-04-10T13:44:45;6.20;;;5.60;;
64597;SDS011;51004;54.692;9.332;2023-04-10T13:47:12;7.03;;;6.20;;
64597;SDS011;51004;54.692;9.332;2023-04-10T13:49:38;8.18;;;6.22;;
64597;SDS011;51004;54.692;9.332;2023-04-10T13:52:04;8.02;;;6.53;;
64597;SDS011;51004;54.692;9.332;2023-04-10T13:54:30;7.38;;;5.82;;
64597;SDS011;51004;54.692;9.332;2023-04-10T13:56:56;7.80;;;5.30;;
64597;SDS011;51004;54.692;9.332;2023-04-10T13:59:23;6.22;;;5.20;;
64597;SDS011;51004;54.692;9.332;2023-04-10T14:01:49;7.85;;;6.28;;
64597;SDS011;51004;54.692;9.332;2023-04-10T14:04:16;7.63;;;5.30;;
64597;SDS011;51004;54.692;9.332;2023-04-10T14:06:42;6.68;;;5.97;;
64597;SDS011;51004;54.692;9.332;2023-04-10T14:09:08;6.40;;;5.60;;
64597;SDS011;51004;54.692;9.332;2023-04-10T14:11:34;6.30;;;5.28;;
64597;SDS011;51004;54.692;9.332;2023-04-10T14:14:00;6.10;;;5.07;;
64597;SDS011;51004;54.692;9.332;2023-04-10T14:16:26;6.20;;;5.18;;
64597;SDS011;51004;54.692;9.332;2023-04-10T14:18:52;5.90;;;4.70;;
64597;SDS011;51004;54.692;9.332;2023-04-10T14:21:18;7.45;;;5.00;;
64597;SDS011;51004;54.692;9.332;2023-04-10T14:23:44;7.47;;;5.70;;
64597;SDS011;51004;54.692;9.332;2023-04-10T14:26:10;5.93;;;5.28;;
64597;SDS011;51004;54.692;9.332;2023-04-10T14:28:36;6.10;;;4.97;;
64597;SDS011;51004;54.692;9.332;2023-04-10T14:31:03;7.80;;;4.97;;
64597;SDS011;51004;54.692;9.332;2023-04-10T14:33:30;5.80;;;5.20;;
64597;SDS011;51004;54.692;9.332;2023-04-10T14:35:56;6.53;;;4.75;;
64597;SDS011;51004;54.692;9.332;2023-04-10T14:38:22;6.90;;;5.45;;
64597;SDS011;51004;54.692;9.332;2023-04-10T14:40:48;6.07;;;5.10;;
64597;SDS011;51004;54.692;9.332;2023-04-10T14:43:14;5.45;;;4.90;;
64597;SDS011;51004;54.692;9.332;2023-04-10T14:45:40;8.05;;;4.82;;
64597;SDS011;51004;54.692;9.332;2023-04-10T14:48:06;5.30;;;4.35;;
64597;SDS011;51004;54.692;9.332;2023-04-10T14:50:32;6.20;;;5.22;;
64597;SDS011;51004;54.692;9.332;2023-04-10T14:52:58;6.05;;;5.05;;
64597;SDS011;51004;54.692;9.332;2023-04-10T14:55:25;5.05;;;3.88;;
64597;SDS011;51004;54.692;9.332;2023-04-10T14:57:51;4.90;;;4.18;;
64597;SDS011;51004;54.692;9.332;2023-04-10T15:00:17;6.78;;;5.00;;
64597;SDS011;51004;54.692;9.332;2023-04-10T15:02:43;5.05;;;4.50;;
64597;SDS011;51004;54.692;9.332;2023-04-10T15:05:09;6.03;;;4.70;;
64597;SDS011;51004;54.692;9.332;2023-04-10T15:07:35;5.15;;;4.60;;
64597;SDS011;51004;54.692;9.332;2023-04-10T15:10:01;9.00;;;4.95;;